createdAt,value
2022-09-14T08:03:36.443Z,41.02
2022-09-14T08:06:07.988Z,40.44
2022-09-14T08:08:38.219Z,41.28
2022-09-14T08:11:08.446Z,42.84
2022-09-14T08:13:35.736Z,43.34
2022-09-14T08:16:09.951Z,42.56
2022-09-14T08:18:38.485Z,43.73
2022-09-14T08:21:23.793Z,44.08
2022-09-14T08:23:58.594Z,45.72
2022-09-14T08:26:27.328Z,43.42
2022-09-14T08:28:55.764Z,41.49
2022-09-14T08:31:27.186Z,41.00
2022-09-14T08:33:58.172Z,39.08
2022-09-14T08:36:27.811Z,39.22
2022-09-14T08:38:55.297Z,42.02
2022-09-14T08:41:29.739Z,41.66
2022-09-14T08:44:14.357Z,43.12
2022-09-14T08:47:03.234Z,43.08
2022-09-14T08:49:44.378Z,42.18
2022-09-14T08:52:25.613Z,42.74
2022-09-14T08:54:58.571Z,43.29
2022-09-14T08:57:40.674Z,40.06
2022-09-14T09:00:24.923Z,39.52
2022-09-14T09:03:29.637Z,38.02
2022-09-14T09:06:15.744Z,36.75
2022-09-14T09:09:02.304Z,36.29
2022-09-14T09:11:37.886Z,37.77
2022-09-14T09:14:19.336Z,36.84
2022-09-14T09:16:50.356Z,37.89
2022-09-14T09:19:32.961Z,37.80
2022-09-14T09:22:15.878Z,38.24
2022-09-14T09:24:47.724Z,39.14
2022-09-14T09:27:28.274Z,38.83
2022-09-14T09:29:55.870Z,40.98
2022-09-14T09:32:27.413Z,41.68
2022-09-14T09:35:24.727Z,42.95
2022-09-14T09:37:58.477Z,42.18
2022-09-14T09:40:36.243Z,42.83
2022-09-14T09:43:04.283Z,43.33
2022-09-14T09:45:50.916Z,43.04
2022-09-14T09:48:22.300Z,43.51
2022-09-14T09:51:04.758Z,44.26
2022-09-14T09:53:34.390Z,43.35
2022-09-14T09:56:02.000Z,43.58
2022-09-14T09:58:38.290Z,44.20
2022-09-14T10:01:17.475Z,42.61
2022-09-14T10:04:00.463Z,42.61
2022-09-14T10:06:27.701Z,43.24
2022-09-14T10:08:57.481Z,42.99
2022-09-14T10:11:37.688Z,42.77
2022-09-14T10:14:18.688Z,42.39
2022-09-14T10:16:46.151Z,42.27
2022-09-14T10:19:22.576Z,43.54
2022-09-14T10:22:31.254Z,43.60
2022-09-14T10:25:20.251Z,43.93
2022-09-14T10:27:56.680Z,46.22
2022-09-14T10:30:34.562Z,43.91
2022-09-14T10:33:15.139Z,43.10
2022-09-14T10:35:47.405Z,44.06
2022-09-14T10:38:36.655Z,43.76
2022-09-14T10:41:21.944Z,43.94
2022-09-14T10:44:11.583Z,44.82
2022-09-14T10:46:48.462Z,45.18
2022-09-14T10:52:22.000Z,45.67
2022-09-14T10:55:32.137Z,45.96
2022-09-14T10:58:25.791Z,46.42
2022-09-14T11:01:29.471Z,45.47
2022-09-14T11:04:28.909Z,44.85
2022-09-14T11:07:32.824Z,46.15
2022-09-14T11:09:59.991Z,46.87
2022-09-14T11:12:55.616Z,45.61
2022-09-14T11:15:41.332Z,46.10
2022-09-14T11:18:27.037Z,44.95
2022-09-14T11:21:03.918Z,45.08
2022-09-14T11:24:02.213Z,44.77
2022-09-14T11:26:42.493Z,44.01
2022-09-14T11:29:18.959Z,44.81
2022-09-14T11:32:20.505Z,43.97
2022-09-14T11:34:56.125Z,43.09
2022-09-14T11:41:47.526Z,43.88
2022-09-14T11:44:22.085Z,43.86
2022-09-14T11:47:00.776Z,43.65
2022-09-14T11:49:46.387Z,43.70
2022-09-14T11:52:28.192Z,43.50
2022-09-14T11:54:56.366Z,44.17
2022-09-14T11:57:26.682Z,44.08
2022-09-14T12:00:24.445Z,43.16
2022-09-14T12:03:18.652Z,43.82
2022-09-14T12:05:47.746Z,43.14
2022-09-14T12:08:24.176Z,45.12
2022-09-14T12:11:09.589Z,43.96
2022-09-14T12:13:37.918Z,44.90
2022-09-14T12:16:09.647Z,44.75
2022-09-14T12:18:38.982Z,45.34
2022-09-14T12:21:08.280Z,45.38
2022-09-14T12:27:54.442Z,45.31
2022-09-14T12:30:40.996Z,44.98
2022-09-14T12:33:34.027Z,46.65
2022-09-14T12:36:04.339Z,45.92
2022-09-14T12:39:04.174Z,45.95
2022-09-14T12:41:37.140Z,46.59
2022-09-14T12:44:04.979Z,46.32
2022-09-14T12:46:38.676Z,46.64
2022-09-14T12:49:29.641Z,46.06
2022-09-14T12:52:03.539Z,45.98
2022-09-14T12:54:41.477Z,45.48
2022-09-14T12:57:28.265Z,45.67
2022-09-14T13:00:13.517Z,45.93
2022-09-14T13:02:47.632Z,46.07
2022-09-14T13:05:18.098Z,45.84
2022-09-14T13:07:46.014Z,45.96
2022-09-14T13:10:24.594Z,46.18
2022-09-14T13:12:52.147Z,47.62
2022-09-14T13:15:23.193Z,47.11
2022-09-14T13:18:03.564Z,47.50
2022-09-14T13:20:33.416Z,48.30
2022-09-14T13:23:01.287Z,48.59
2022-09-14T13:25:38.049Z,48.54
2022-09-14T13:28:11.445Z,49.65
2022-09-14T13:30:39.071Z,49.01
2022-09-14T13:33:06.186Z,48.75
2022-09-14T13:35:39.634Z,50.71
2022-09-14T13:38:29.616Z,50.34
2022-09-14T13:41:09.371Z,50.14
2022-09-14T13:43:37.144Z,49.36
2022-09-14T13:46:07.577Z,49.57
2022-09-14T13:48:40.139Z,50.21
2022-09-14T13:51:08.767Z,50.72
2022-09-14T13:53:37.928Z,50.67
2022-09-14T13:56:17.374Z,51.33
2022-09-14T13:58:45.675Z,51.72
2022-09-14T14:01:25.444Z,52.14
2022-09-14T14:03:55.398Z,52.01
2022-09-14T14:06:25.443Z,52.26
2022-09-14T14:09:06.693Z,52.53
2022-09-14T14:11:35.664Z,52.31
2022-09-14T14:14:30.151Z,52.81
2022-09-14T14:17:30.328Z,52.58
2022-09-14T14:20:00.300Z,52.40
2022-09-14T14:22:35.603Z,52.58
2022-09-14T14:25:19.082Z,52.49
2022-09-14T14:27:47.921Z,52.53
2022-09-14T14:30:21.339Z,52.87
2022-09-14T14:32:53.667Z,53.03
2022-09-14T14:35:24.381Z,52.69
2022-09-14T14:37:51.808Z,53.07
2022-09-14T14:40:19.843Z,53.15
2022-09-14T14:42:49.171Z,53.23
2022-09-14T14:45:19.520Z,53.03
2022-09-14T14:47:48.080Z,53.01
2022-09-14T14:50:17.040Z,53.48
2022-09-14T14:52:44.243Z,53.44
2022-09-14T14:55:11.375Z,53.73
2022-09-14T14:57:38.989Z,53.29
2022-09-14T15:00:13.175Z,53.48
2022-09-14T15:02:40.278Z,53.04
2022-09-14T15:05:07.662Z,53.77
2022-09-14T15:07:37.718Z,52.41
2022-09-14T15:10:06.843Z,52.55
2022-09-14T15:12:36.563Z,52.33
2022-09-14T15:15:03.922Z,52.66
2022-09-14T15:17:31.014Z,52.76
2022-09-14T15:19:58.020Z,52.58
2022-09-14T15:22:25.315Z,52.76
2022-09-14T15:24:52.404Z,53.13
2022-09-14T15:27:19.489Z,52.87
2022-09-14T15:29:46.568Z,52.96
2022-09-14T15:32:13.720Z,52.86
2022-09-14T15:34:41.324Z,53.01
2022-09-14T15:37:09.286Z,53.25
2022-09-14T15:39:36.778Z,53.30
2022-09-14T15:42:04.439Z,53.35
2022-09-14T15:44:32.996Z,53.57
2022-09-14T15:47:00.174Z,53.66
2022-09-14T15:49:27.602Z,53.43
2022-09-14T15:51:56.309Z,53.43
2022-09-14T15:54:25.313Z,53.42
2022-09-14T15:56:55.310Z,53.59
2022-09-14T15:59:23.185Z,53.39
2022-09-14T16:01:50.663Z,53.71
2022-09-14T16:04:18.757Z,54.00
2022-09-14T16:06:46.620Z,54.46
2022-09-14T16:09:15.521Z,54.14
2022-09-14T16:11:44.039Z,54.83
2022-09-14T16:14:11.594Z,54.58
2022-09-14T16:16:39.481Z,55.34
2022-09-14T16:19:12.851Z,55.04
2022-09-14T16:21:41.436Z,55.60
2022-09-14T16:24:12.716Z,55.40
2022-09-14T16:26:40.623Z,55.47
2022-09-14T16:29:11.574Z,55.60
2022-09-14T16:31:41.220Z,56.34
2022-09-14T16:34:14.632Z,56.57
2022-09-14T16:36:43.074Z,56.99
2022-09-14T16:39:16.343Z,56.70
2022-09-14T16:41:44.082Z,56.71
2022-09-14T16:44:15.073Z,57.20
2022-09-14T16:46:42.495Z,56.98
2022-09-14T16:49:09.768Z,57.35
2022-09-14T16:51:36.913Z,57.30
2022-09-14T16:54:04.499Z,57.40
2022-09-14T16:56:35.987Z,57.52
2022-09-14T16:59:04.711Z,57.50
2022-09-14T17:01:43.361Z,57.76
2022-09-14T17:04:15.979Z,57.78
2022-09-14T17:06:44.736Z,57.64
2022-09-14T17:09:15.562Z,58.07
2022-09-14T17:11:43.108Z,58.09
2022-09-14T17:14:14.727Z,58.30
2022-09-14T17:16:42.157Z,58.35
2022-09-14T17:19:10.215Z,58.30
2022-09-14T17:21:40.659Z,58.74
2022-09-14T17:24:08.458Z,58.45
2022-09-14T17:26:38.627Z,58.38
2022-09-14T17:29:07.012Z,58.90
2022-09-14T17:31:40.773Z,58.99
2022-09-14T17:34:10.339Z,58.97
2022-09-14T17:36:38.237Z,59.23
2022-09-14T17:39:11.772Z,59.72
2022-09-14T17:41:40.646Z,59.42
2022-09-14T17:44:10.978Z,59.46
2022-09-14T17:46:46.044Z,59.73
2022-09-14T17:49:18.509Z,59.59
2022-09-14T17:51:45.744Z,59.71
2022-09-14T17:54:13.174Z,59.91
2022-09-14T17:56:40.677Z,60.24
2022-09-14T17:59:11.883Z,59.87
2022-09-14T18:01:39.790Z,60.38
2022-09-14T18:04:12.024Z,60.53
2022-09-14T18:06:42.264Z,60.41
2022-09-14T18:09:15.380Z,60.62
2022-09-14T18:11:43.227Z,60.50
2022-09-14T18:14:12.887Z,60.29
2022-09-14T18:16:41.066Z,60.28
2022-09-14T18:19:08.439Z,60.40
2022-09-14T18:21:35.784Z,60.22
2022-09-14T18:24:03.369Z,60.51
2022-09-14T18:26:30.555Z,60.34
2022-09-14T18:28:58.661Z,60.38
2022-09-14T18:31:27.120Z,60.16
2022-09-14T18:33:59.117Z,60.27
2022-09-14T18:36:29.532Z,60.35
2022-09-14T18:38:58.412Z,60.24
2022-09-14T18:41:28.941Z,60.18
2022-09-14T18:44:00.829Z,60.56
2022-09-14T18:46:28.817Z,60.35
2022-09-14T18:48:58.479Z,60.09
2022-09-14T18:51:27.186Z,60.19
2022-09-14T18:54:03.657Z,60.63
2022-09-14T18:56:34.575Z,60.50
2022-09-14T18:59:03.416Z,60.44
2022-09-14T19:01:33.108Z,60.55
2022-09-14T19:04:02.281Z,61.18
2022-09-14T19:06:29.325Z,60.95
2022-09-14T19:08:56.403Z,60.97
2022-09-14T19:11:27.058Z,60.60
2022-09-14T19:14:09.307Z,60.73
2022-09-14T19:16:41.064Z,61.03
2022-09-14T19:19:10.704Z,61.14
2022-09-14T19:21:40.293Z,61.52
2022-09-14T19:24:13.512Z,61.49
2022-09-14T19:26:50.840Z,61.53
2022-09-14T19:29:23.359Z,61.64
2022-09-14T19:31:52.205Z,61.91
2022-09-14T19:34:20.627Z,61.72
2022-09-14T19:36:47.919Z,61.92
2022-09-14T19:39:15.324Z,61.63
2022-09-14T19:41:42.519Z,61.93
2022-09-14T19:44:13.649Z,62.17
2022-09-14T19:46:40.809Z,61.99
2022-09-14T19:49:14.767Z,62.18
2022-09-14T19:51:42.297Z,62.36
2022-09-14T19:54:09.779Z,62.26
2022-09-14T19:56:37.259Z,62.47
2022-09-14T19:59:07.168Z,62.17
2022-09-14T20:01:36.872Z,62.40
2022-09-14T20:04:05.615Z,62.69
2022-09-14T20:06:40.265Z,62.77
2022-09-14T20:09:15.898Z,63.25
2022-09-14T20:11:45.225Z,63.26
2022-09-14T20:14:15.089Z,63.34
2022-09-14T20:16:50.953Z,63.31
2022-09-14T20:19:23.124Z,63.25
2022-09-14T20:21:51.756Z,62.86
2022-09-14T20:24:25.392Z,63.04
2022-09-14T20:26:55.251Z,63.01
2022-09-14T20:29:23.879Z,63.19
2022-09-14T20:31:51.292Z,63.69
2022-09-14T20:34:20.526Z,63.53
2022-09-14T20:36:49.153Z,63.88
2022-09-14T20:39:16.625Z,63.77
2022-09-14T20:41:44.032Z,64.33
2022-09-14T20:44:11.978Z,64.47
2022-09-14T20:46:41.647Z,63.93
2022-09-14T20:49:14.642Z,63.83
2022-09-14T20:51:42.865Z,63.86
2022-09-14T20:54:13.872Z,63.73
2022-09-14T20:56:41.604Z,63.69
2022-09-14T20:59:12.924Z,63.74
2022-09-14T21:01:42.031Z,63.94
2022-09-14T21:04:14.679Z,63.38
2022-09-14T21:06:44.837Z,63.63
2022-09-14T21:09:13.139Z,63.07
2022-09-14T21:11:41.164Z,63.30
2022-09-14T21:14:08.746Z,63.02
2022-09-14T21:16:42.445Z,63.24
2022-09-14T21:19:15.757Z,62.74
2022-09-14T21:21:43.312Z,62.82
2022-09-14T21:24:13.424Z,62.64
2022-09-14T21:26:42.834Z,62.78
2022-09-14T21:29:17.503Z,62.84
2022-09-14T21:31:44.854Z,62.56
2022-09-14T21:34:12.528Z,62.34
2022-09-14T21:36:42.653Z,62.14
2022-09-14T21:39:15.859Z,61.65
2022-09-14T21:41:44.852Z,61.75
2022-09-14T21:44:13.428Z,61.79
2022-09-14T21:46:41.381Z,61.84
2022-09-14T21:49:14.054Z,61.68
2022-09-14T21:51:41.613Z,61.94
2022-09-14T21:54:10.670Z,61.92
2022-09-14T21:56:40.056Z,62.14
2022-09-14T21:59:10.120Z,61.96
2022-09-14T22:01:37.917Z,62.27
2022-09-14T22:04:09.460Z,62.15
2022-09-14T22:06:36.554Z,62.12
2022-09-14T22:09:03.866Z,61.77
2022-09-14T22:11:34.707Z,61.62
2022-09-14T22:14:04.815Z,61.66
2022-09-14T22:16:35.040Z,61.78
2022-09-14T22:19:05.435Z,61.75
2022-09-14T22:21:35.703Z,61.54
2022-09-14T22:24:05.083Z,61.69
2022-09-14T22:26:36.133Z,61.72
2022-09-14T22:29:04.437Z,61.69
2022-09-14T22:31:32.603Z,61.79
2022-09-14T22:33:59.767Z,61.85
2022-09-14T22:36:27.631Z,61.93
2022-09-14T22:38:56.829Z,61.60
2022-09-14T22:41:26.033Z,61.99
2022-09-14T22:43:54.009Z,61.93
2022-09-14T22:46:22.334Z,61.99
2022-09-14T22:48:50.652Z,62.28
2022-09-14T22:51:20.893Z,62.16
2022-09-14T22:53:48.022Z,62.08
2022-09-14T22:56:41.517Z,61.75
2022-09-14T22:59:10.475Z,62.00
2022-09-14T23:01:40.034Z,61.99
2022-09-14T23:04:10.043Z,62.65
2022-09-14T23:06:42.673Z,62.13
2022-09-14T23:09:12.975Z,62.20
2022-09-14T23:11:40.080Z,62.01
2022-09-14T23:14:07.158Z,62.12
2022-09-14T23:16:34.221Z,62.01
2022-09-14T23:19:04.130Z,62.14
2022-09-14T23:21:31.548Z,62.03
2022-09-14T23:24:02.117Z,61.94
2022-09-14T23:26:30.014Z,62.15
2022-09-14T23:29:02.570Z,61.82
2022-09-14T23:31:31.232Z,61.87
2022-09-14T23:34:00.599Z,62.01
2022-09-14T23:36:28.440Z,61.66
2022-09-14T23:38:55.699Z,61.42
2022-09-14T23:41:25.650Z,61.53
2022-09-14T23:43:52.979Z,61.63
2022-09-14T23:46:20.960Z,61.74
2022-09-14T23:48:49.378Z,61.52
2022-09-14T23:51:16.799Z,61.39
2022-09-14T23:53:43.947Z,61.39
2022-09-14T23:56:11.727Z,61.38
2022-09-14T23:58:40.867Z,61.03
